KGUP

Gallup Municipal Airport

Gallup, New Mexico, USA
KGUP 221123Z 2212/2312 12006KT P6SM SCT090 FM221400 VRB06KT P6SM SKC FM221800 22007KT P6SM SKC FM222000 25008KT P6SM FEW080 FM230200 VRB06KT P6SM SKC
Issued Valid From Valid To
Sep-22 @ 11:23 UTC
(4 hours ago)
Sep-22 @ 12:00 UTC
(3 hours ago)
Sep-23 @ 12:00 UTC
(in 21 hours)
to
to
to
to
to
KGUP 221123Z 2212/2312 12006KT P6SM SCT090 FM221400 VRB06KT P6SM SKC FM221800 22007KT P6SM SKC FM222000 25008KT P6SM FEW080 FM230200 VRB06KT P6SM SKC
Issued Sep-22 @ 11:23 UTC
(4 hours ago)
Valid From Sep-22 @ 12:00 UTC
(3 hours ago)
Valid To Sep-23 @ 12:00 UTC
(in 21 hours)
-
-
-
-
-